createdAt,value
2022-08-10T00:01:52.217Z,93.45
2022-08-10T00:04:21.561Z,90.57
2022-08-10T00:06:49.399Z,89.28
2022-08-10T00:09:16.153Z,88.49
2022-08-10T00:11:42.913Z,87.89
2022-08-10T00:14:09.722Z,87.83
2022-08-10T00:16:36.514Z,85.96
2022-08-10T00:19:03.442Z,85.77
2022-08-10T00:21:30.189Z,85.46
2022-08-10T00:23:56.908Z,85.58
2022-08-10T00:26:23.667Z,85.52
2022-08-10T00:28:50.468Z,86.05
2022-08-10T00:31:17.351Z,86.95
2022-08-10T00:33:44.093Z,87.20
2022-08-10T00:36:10.909Z,87.14
2022-08-10T00:38:37.871Z,87.00
2022-08-10T00:41:05.047Z,86.31
2022-08-10T00:43:31.972Z,86.16
2022-08-10T00:46:00.463Z,86.26
2022-08-10T00:48:30.213Z,85.94
2022-08-10T00:50:59.886Z,86.52
2022-08-10T00:53:28.091Z,86.72
2022-08-10T00:56:41.640Z,86.66
2022-08-10T00:58:43.028Z,86.28
2022-08-10T01:01:11.689Z,86.56
2022-08-10T01:04:36.576Z,86.08
2022-08-10T01:06:52.036Z,85.92
2022-08-10T01:09:29.725Z,86.21
2022-08-10T01:12:37.588Z,85.68
2022-08-10T01:15:18.174Z,85.65
2022-08-10T01:18:05.747Z,84.86
2022-08-10T01:20:44.667Z,83.58
2022-08-10T01:23:36.091Z,82.32
2022-08-10T01:26:30.540Z,81.25
2022-08-10T01:29:32.692Z,80.14
2022-08-10T01:32:04.540Z,78.75
2022-08-10T01:34:41.157Z,78.90
2022-08-10T01:37:14.139Z,78.31
2022-08-10T01:39:45.400Z,77.63
2022-08-10T01:42:14.272Z,77.69
2022-08-10T01:45:06.171Z,78.54
2022-08-10T01:47:58.215Z,78.11
2022-08-10T01:50:59.090Z,77.56
2022-08-10T01:53:41.135Z,76.58
2022-08-10T01:56:12.069Z,76.04
2022-08-10T01:58:39.828Z,75.70
2022-08-10T02:01:09.888Z,73.61
2022-08-10T02:04:04.269Z,72.54
2022-08-10T02:06:30.532Z,72.22
2022-08-10T02:09:06.358Z,71.98
2022-08-10T02:12:05.202Z,71.35
2022-08-10T02:14:33.362Z,70.50
2022-08-10T02:17:07.852Z,70.62
2022-08-10T02:19:38.788Z,69.66
2022-08-10T02:22:36.190Z,69.22
2022-08-10T02:24:56.280Z,68.30
2022-08-10T02:27:27.544Z,68.78
2022-08-10T02:29:55.641Z,68.58
2022-08-10T02:32:36.189Z,68.62
2022-08-10T02:35:08.439Z,68.38
2022-08-10T02:37:46.714Z,68.00
2022-08-10T02:45:14.710Z,67.83
2022-08-10T02:45:19.722Z,67.93
2022-08-10T02:46:20.946Z,67.49
2022-08-10T02:48:58.150Z,68.30
2022-08-10T02:52:06.206Z,68.46
2022-08-10T02:54:24.786Z,68.16
2022-08-10T02:57:07.788Z,67.13
2022-08-10T02:59:44.973Z,66.52
2022-08-10T03:02:29.163Z,65.62
2022-08-10T03:05:02.065Z,65.64
2022-08-10T03:07:43.281Z,65.38
2022-08-10T03:10:18.666Z,65.34
2022-08-10T03:12:50.616Z,65.33
2022-08-10T03:15:19.810Z,65.43
2022-08-10T03:17:56.809Z,65.07
2022-08-10T03:20:37.019Z,65.54
2022-08-10T03:23:16.831Z,65.77
2022-08-10T03:25:54.350Z,65.42
2022-08-10T03:28:30.380Z,65.48
2022-08-10T03:30:59.555Z,65.67
2022-08-10T03:33:29.360Z,65.08
2022-08-10T03:36:43.364Z,64.28
2022-08-10T03:38:46.305Z,64.91
2022-08-10T03:41:16.467Z,64.99
2022-08-10T03:43:48.010Z,64.56
2022-08-10T03:46:18.615Z,64.61
2022-08-10T03:48:49.833Z,64.10
2022-08-10T03:51:19.005Z,64.33
2022-08-10T03:54:04.872Z,64.40
2022-08-10T03:56:39.505Z,64.05
2022-08-10T03:59:09.041Z,63.93
2022-08-10T04:02:52.872Z,63.26
2022-08-10T04:04:25.382Z,62.69
2022-08-10T04:06:55.691Z,62.18
2022-08-10T04:09:54.664Z,61.75
2022-08-10T04:12:21.680Z,61.51
2022-08-10T04:14:51.098Z,61.19
2022-08-10T04:18:03.362Z,61.41
2022-08-10T04:20:34.242Z,61.22
2022-08-10T04:23:06.723Z,61.68
2022-08-10T04:25:34.543Z,61.72
2022-08-10T04:28:03.180Z,62.05
2022-08-10T04:30:32.330Z,61.91
2022-08-10T04:33:01.950Z,62.38
2022-08-10T04:35:30.179Z,62.45
2022-08-10T04:37:58.493Z,62.00
2022-08-10T04:40:30.119Z,62.14
2022-08-10T04:43:12.206Z,62.97
2022-08-10T04:45:48.432Z,63.00
2022-08-10T04:48:43.270Z,61.54
2022-08-10T04:51:17.920Z,61.74
2022-08-10T04:54:04.664Z,61.92
2022-08-10T04:56:35.597Z,61.75
2022-08-10T04:59:02.567Z,62.09
2022-08-10T05:02:09.968Z,62.34
2022-08-10T05:04:36.231Z,60.64
2022-08-10T05:07:05.347Z,61.10
2022-08-10T05:09:32.191Z,61.48
2022-08-10T05:11:58.895Z,62.68
2022-08-10T05:14:25.609Z,60.54
2022-08-10T05:16:52.355Z,59.81
2022-08-10T05:20:02.314Z,60.85
2022-08-10T05:22:06.780Z,59.88
2022-08-10T05:24:33.697Z,59.68
2022-08-10T05:27:10.029Z,59.49
2022-08-10T05:29:39.666Z,59.38
2022-08-10T05:32:06.598Z,59.48
2022-08-10T05:34:33.779Z,59.25
2022-08-10T05:37:00.879Z,58.84
2022-08-10T05:39:30.259Z,59.26
2022-08-10T05:42:00.988Z,58.49
2022-08-10T05:44:34.794Z,58.65
2022-08-10T05:47:01.605Z,58.42
2022-08-10T05:49:28.608Z,59.15
2022-08-10T05:51:55.444Z,59.11
2022-08-10T05:54:22.223Z,58.73
2022-08-10T05:56:55.903Z,59.56
2022-08-10T06:00:33.872Z,60.37
2022-08-10T06:02:41.507Z,60.12
2022-08-10T06:05:15.895Z,60.15
2022-08-10T06:07:57.802Z,59.98
2022-08-10T06:10:32.337Z,59.20
2022-08-10T06:13:26.936Z,59.15
2022-08-10T06:16:00.689Z,57.68
2022-08-10T06:18:28.048Z,58.28
2022-08-10T06:20:55.239Z,58.51
2022-08-10T06:23:23.635Z,56.93
2022-08-10T06:26:10.865Z,57.52
2022-08-10T06:29:02.455Z,57.38
2022-08-10T06:31:48.458Z,55.47
2022-08-10T06:34:21.020Z,40.96
2022-08-10T06:36:48.762Z,38.82
2022-08-10T06:42:15.221Z,34.63
2022-08-10T06:44:55.857Z,36.06
2022-08-10T06:47:26.784Z,35.39
2022-08-10T06:49:59.675Z,35.82
2022-08-10T06:52:30.290Z,36.58
2022-08-10T06:54:59.526Z,36.60
2022-08-10T06:57:31.518Z,37.46
2022-08-10T06:59:59.375Z,35.35
2022-08-10T07:02:37.545Z,34.36
2022-08-10T07:05:08.809Z,36.24
2022-08-10T07:07:39.268Z,35.59
2022-08-10T07:10:07.354Z,36.98
2022-08-10T07:12:36.567Z,40.44
2022-08-10T07:15:04.185Z,35.31
2022-08-10T07:17:38.665Z,34.47
2022-08-10T07:20:11.468Z,35.12
2022-08-10T07:23:51.873Z,38.01
2022-08-10T07:25:28.695Z,39.01
2022-08-10T07:28:00.129Z,38.86
2022-08-10T07:30:30.729Z,38.52
2022-08-10T07:32:59.048Z,38.54
2022-08-10T07:35:28.378Z,39.50
2022-08-10T07:38:03.990Z,41.31
2022-08-10T07:40:33.727Z,41.09
2022-08-10T07:43:02.358Z,40.88
2022-08-10T07:45:33.620Z,43.00
2022-08-10T07:48:09.762Z,41.57
2022-08-10T07:50:41.291Z,41.56
2022-08-10T07:53:12.686Z,42.13
2022-08-10T07:56:01.657Z,42.00
2022-08-10T07:58:38.515Z,41.32
2022-08-10T08:01:05.460Z,41.36
2022-08-10T08:03:33.872Z,39.78
2022-08-10T08:06:05.326Z,39.83
2022-08-10T08:08:40.734Z,39.02
2022-08-10T08:11:09.101Z,38.02
2022-08-10T08:13:54.710Z,39.39
2022-08-10T08:16:24.085Z,34.09
2022-08-10T08:19:25.483Z,32.27
2022-08-10T08:24:09.313Z,31.67
2022-08-10T08:24:31.747Z,30.92
2022-08-10T08:27:02.733Z,29.88
2022-08-10T08:29:33.397Z,30.21
2022-08-10T08:32:03.360Z,29.99
2022-08-10T08:34:37.602Z,31.00
2022-08-10T08:37:06.058Z,32.70
2022-08-10T08:39:37.186Z,34.33
2022-08-10T08:42:14.607Z,33.84
2022-08-10T08:45:03.667Z,32.53
2022-08-10T08:48:04.961Z,33.18
2022-08-10T08:50:57.567Z,32.25
2022-08-10T08:54:02.747Z,33.39
2022-08-10T08:56:50.446Z,31.95
2022-08-10T08:59:50.914Z,32.06
2022-08-10T09:02:20.642Z,31.77
2022-08-10T09:05:00.694Z,31.57
2022-08-10T09:07:59.901Z,30.16
2022-08-10T09:10:37.896Z,28.64
2022-08-10T09:13:38.562Z,29.36
2022-08-10T09:16:24.373Z,29.77
2022-08-10T09:19:08.431Z,28.36
2022-08-10T09:22:18.164Z,28.21
2022-08-10T09:25:07.216Z,29.12
2022-08-10T09:27:40.942Z,29.42
2022-08-10T09:30:13.623Z,29.24
2022-08-10T09:36:14.575Z,30.38
2022-08-10T09:36:33.025Z,31.24
2022-08-10T09:40:56.202Z,31.70
2022-08-10T09:42:21.994Z,31.40
2022-08-10T09:44:58.318Z,31.43
2022-08-10T09:48:02.244Z,32.58
2022-08-10T09:50:59.033Z,31.93
2022-08-10T09:53:44.371Z,30.47
2022-08-10T09:56:41.370Z,31.05
2022-08-10T09:59:29.343Z,30.86
2022-08-10T10:02:42.890Z,30.01
2022-08-10T10:05:30.704Z,30.47
2022-08-10T10:08:42.182Z,31.26
2022-08-10T10:11:09.779Z,30.99
2022-08-10T10:13:52.768Z,30.42
2022-08-10T10:16:44.775Z,30.09
2022-08-10T10:19:40.879Z,29.56
2022-08-10T10:22:26.505Z,29.81
2022-08-10T10:24:53.283Z,30.10
2022-08-10T10:27:41.821Z,29.99
2022-08-10T10:30:11.057Z,30.38
2022-08-10T10:33:17.676Z,30.05
2022-08-10T10:35:52.997Z,29.82
2022-08-10T10:38:24.490Z,29.09
2022-08-10T10:41:08.777Z,28.89
2022-08-10T10:44:12.304Z,29.08
2022-08-10T10:46:57.549Z,29.37
2022-08-10T10:49:52.733Z,29.29
2022-08-10T10:52:56.304Z,29.17
2022-08-10T10:55:23.171Z,29.35
2022-08-10T10:58:09.519Z,28.78
2022-08-10T11:01:06.153Z,28.42
2022-08-10T11:03:54.600Z,27.78
2022-08-10T11:06:42.515Z,28.50
2022-08-10T11:10:03.737Z,28.52
2022-08-10T11:12:17.098Z,28.27
2022-08-10T11:15:09.938Z,28.44
2022-08-10T11:17:48.410Z,27.97
2022-08-10T11:20:23.570Z,27.91
2022-08-10T11:22:57.878Z,28.07
2022-08-10T11:25:39.203Z,27.36
2022-08-10T11:28:17.806Z,28.24
2022-08-10T11:31:07.337Z,28.17
2022-08-10T11:34:03.820Z,28.05
2022-08-10T11:37:01.058Z,27.92
2022-08-10T11:39:30.598Z,27.34
2022-08-10T11:42:16.100Z,27.52
2022-08-10T11:44:57.484Z,27.28
2022-08-10T11:47:43.907Z,27.75
2022-08-10T11:50:37.439Z,27.73
2022-08-10T11:53:17.945Z,27.17
2022-08-10T11:55:54.658Z,26.94
2022-08-10T11:58:43.665Z,27.32
2022-08-10T12:01:13.664Z,26.96
2022-08-10T12:03:42.495Z,26.46
2022-08-10T12:06:13.850Z,26.66
2022-08-10T12:10:02.024Z,27.40
2022-08-10T12:11:33.098Z,27.65
2022-08-10T12:14:24.468Z,27.33
2022-08-10T12:17:05.630Z,27.43
2022-08-10T12:20:01.123Z,26.94
2022-08-10T12:22:49.351Z,27.14
2022-08-10T12:25:56.439Z,27.33
2022-08-10T12:28:16.150Z,27.72
2022-08-10T12:30:50.505Z,27.25
2022-08-10T12:33:25.346Z,26.46
2022-08-10T12:36:18.168Z,26.65
2022-08-10T12:39:19.228Z,26.77
2022-08-10T12:41:53.443Z,26.83
2022-08-10T12:44:41.012Z,27.10
2022-08-10T12:47:46.800Z,27.02
2022-08-10T12:50:30.448Z,27.05
2022-08-10T12:53:36.844Z,27.10
2022-08-10T12:56:06.138Z,26.70
2022-08-10T12:58:59.274Z,26.66
2022-08-10T13:01:26.565Z,27.11
2022-08-10T13:04:23.099Z,27.39
2022-08-10T13:06:51.964Z,27.59
2022-08-10T13:09:23.958Z,27.56
2022-08-10T13:12:36.970Z,27.44
2022-08-10T13:14:46.946Z,27.67
2022-08-10T13:17:21.182Z,27.25
2022-08-10T13:19:55.255Z,27.04
2022-08-10T13:22:30.294Z,26.99
2022-08-10T13:25:01.475Z,27.68
2022-08-10T13:28:02.422Z,26.93
2022-08-10T13:30:33.896Z,26.78
2022-08-10T13:33:06.482Z,26.88
2022-08-10T13:35:34.419Z,27.09
2022-08-10T13:38:03.841Z,26.68
2022-08-10T13:40:32.225Z,26.65
2022-08-10T13:43:02.045Z,26.65
2022-08-10T13:45:30.564Z,26.76
2022-08-10T13:48:11.965Z,26.85
2022-08-10T13:50:40.377Z,27.05
2022-08-10T13:53:15.775Z,26.90
2022-08-10T13:55:56.553Z,26.73
2022-08-10T13:58:32.951Z,26.79
2022-08-10T14:01:09.062Z,26.92
2022-08-10T14:03:40.093Z,26.68
2022-08-10T14:06:12.986Z,27.08
2022-08-10T14:08:41.608Z,27.11
2022-08-10T14:11:14.604Z,26.60
2022-08-10T14:13:46.950Z,26.42
2022-08-10T14:16:14.577Z,26.50
2022-08-10T14:18:45.210Z,27.39
2022-08-10T14:21:13.795Z,27.06
2022-08-10T14:23:52.438Z,27.08
2022-08-10T14:26:24.887Z,26.56
2022-08-10T14:29:02.674Z,27.42
2022-08-10T14:31:33.916Z,26.69
2022-08-10T14:34:03.844Z,27.08
2022-08-10T14:36:44.275Z,26.35
2022-08-10T14:39:22.470Z,25.78
2022-08-10T14:42:04.144Z,26.68
2022-08-10T14:44:45.180Z,25.65
2022-08-10T14:47:52.691Z,26.33
2022-08-10T14:50:03.277Z,25.53
2022-08-10T14:52:38.160Z,25.67
2022-08-10T14:55:19.809Z,26.01
2022-08-10T14:58:16.402Z,25.81
2022-08-10T15:00:42.703Z,26.25
2022-08-10T15:04:02.217Z,26.46
2022-08-10T15:06:08.618Z,26.15
2022-08-10T15:08:46.890Z,25.53
2022-08-10T15:12:13.356Z,25.27
2022-08-10T15:14:41.636Z,26.32
2022-08-10T15:16:56.181Z,25.80
2022-08-10T15:20:02.142Z,25.73
2022-08-10T15:22:47.080Z,25.85
2022-08-10T15:25:19.249Z,26.20
2022-08-10T15:28:05.757Z,25.89
2022-08-10T15:30:45.165Z,26.23
2022-08-10T15:34:02.103Z,26.17
2022-08-10T15:36:45.880Z,26.30
2022-08-10T15:40:24.438Z,26.27
2022-08-10T15:42:21.711Z,26.67
2022-08-10T15:44:53.682Z,26.43
2022-08-10T15:47:23.297Z,26.29
2022-08-10T15:49:58.791Z,26.26
2022-08-10T15:52:39.118Z,26.48
2022-08-10T15:55:43.102Z,26.65
2022-08-10T15:58:39.669Z,26.61
2022-08-10T16:02:14.321Z,26.69
2022-08-10T16:04:15.862Z,26.61
2022-08-10T16:07:00.666Z,26.63
2022-08-10T16:10:23.851Z,26.88
2022-08-10T16:12:32.609Z,26.59
2022-08-10T16:15:08.098Z,26.68
2022-08-10T16:17:54.069Z,26.59
2022-08-10T16:20:53.225Z,26.52
2022-08-10T16:23:38.002Z,26.67
2022-08-10T16:26:13.359Z,26.73
2022-08-10T16:28:59.984Z,26.85
2022-08-10T16:31:29.202Z,26.97
2022-08-10T16:34:01.121Z,27.04
2022-08-10T16:36:40.412Z,26.83
2022-08-10T16:39:18.203Z,27.10
2022-08-10T16:42:05.242Z,27.02
2022-08-10T16:44:51.333Z,26.70
2022-08-10T16:47:27.130Z,26.95
2022-08-10T16:49:58.373Z,26.86
2022-08-10T16:55:23.856Z,26.94
2022-08-10T16:58:04.908Z,27.02
2022-08-10T17:00:33.140Z,27.31
2022-08-10T17:04:04.593Z,27.38
2022-08-10T17:06:03.462Z,27.68
2022-08-10T17:08:39.991Z,27.63
2022-08-10T17:11:15.173Z,27.91
2022-08-10T17:13:42.122Z,27.91
2022-08-10T17:16:10.512Z,28.27
2022-08-10T17:18:39.032Z,28.25
2022-08-10T17:21:08.021Z,28.41
2022-08-10T17:23:37.856Z,28.29
2022-08-10T17:26:08.429Z,28.52
2022-08-10T17:28:38.813Z,28.61
2022-08-10T17:31:24.224Z,28.78
2022-08-10T17:34:08.257Z,28.73
2022-08-10T17:36:37.291Z,29.09
2022-08-10T17:39:05.288Z,29.25
2022-08-10T17:41:34.264Z,29.07
2022-08-10T17:44:04.965Z,29.42
2022-08-10T17:46:41.439Z,29.14
2022-08-10T17:49:10.961Z,29.71
2022-08-10T17:51:41.549Z,29.51
2022-08-10T17:54:42.033Z,29.75
2022-08-10T17:57:12.507Z,29.93
2022-08-10T17:59:40.614Z,29.93
2022-08-10T18:02:17.771Z,30.32
2022-08-10T18:05:04.143Z,30.29
2022-08-10T18:07:40.706Z,30.33
2022-08-10T18:10:10.729Z,31.27
2022-08-10T18:12:47.814Z,30.96
2022-08-10T18:15:19.489Z,30.99
2022-08-10T18:17:59.189Z,31.25
2022-08-10T18:20:33.758Z,31.85
2022-08-10T18:23:01.735Z,31.38
2022-08-10T18:25:33.022Z,32.38
2022-08-10T18:28:04.873Z,32.89
2022-08-10T18:30:35.954Z,33.82
2022-08-10T18:33:09.440Z,33.61
2022-08-10T18:35:38.208Z,33.60
2022-08-10T18:38:06.952Z,34.21
2022-08-10T18:40:38.156Z,34.70
2022-08-10T18:44:06.538Z,35.20
2022-08-10T18:46:00.035Z,35.67
2022-08-10T18:48:37.554Z,35.43
2022-08-10T18:51:06.378Z,35.73
2022-08-10T18:53:48.295Z,35.75
2022-08-10T18:56:21.256Z,36.26
2022-08-10T18:59:12.261Z,36.67
2022-08-10T19:02:06.844Z,37.58
2022-08-10T19:04:55.703Z,38.44
2022-08-10T19:07:53.777Z,38.57
2022-08-10T19:11:00.899Z,39.82
2022-08-10T19:13:30.568Z,41.32
2022-08-10T19:16:40.869Z,42.88
2022-08-10T19:19:25.803Z,43.10
2022-08-10T19:22:02.497Z,41.68
2022-08-10T19:24:54.052Z,42.52
2022-08-10T19:27:48.922Z,43.96
2022-08-10T19:30:18.407Z,43.83
2022-08-10T19:33:02.743Z,43.93
2022-08-10T19:36:04.672Z,44.58
2022-08-10T19:38:56.621Z,43.61
2022-08-10T19:41:44.971Z,43.25
2022-08-10T19:44:48.771Z,42.41
2022-08-10T19:47:32.601Z,43.49
2022-08-10T19:50:05.644Z,42.15
2022-08-10T19:52:41.638Z,41.59
2022-08-10T19:55:46.961Z,41.58
2022-08-10T19:58:24.062Z,43.61
2022-08-10T20:00:59.080Z,44.48
2022-08-10T20:03:37.410Z,45.27
2022-08-10T20:06:29.405Z,45.71
2022-08-10T20:09:06.956Z,44.79
2022-08-10T20:11:58.875Z,44.73
2022-08-10T20:14:42.697Z,44.46
2022-08-10T20:17:51.227Z,46.19
2022-08-10T20:20:29.002Z,45.54
2022-08-10T20:23:21.076Z,48.64
2022-08-10T20:25:55.555Z,48.49
2022-08-10T20:28:42.535Z,49.37
2022-08-10T20:31:17.202Z,48.71
2022-08-10T20:34:02.212Z,50.56
2022-08-10T20:36:35.264Z,49.20
2022-08-10T20:39:01.964Z,47.84
2022-08-10T20:41:31.594Z,47.83
2022-08-10T20:44:07.307Z,50.06
2022-08-10T20:46:43.994Z,51.11
2022-08-10T20:49:22.646Z,49.86
2022-08-10T20:51:59.092Z,51.53
2022-08-10T20:54:37.773Z,53.23
2022-08-10T20:57:55.809Z,53.87
2022-08-10T21:00:11.087Z,53.36
2022-08-10T21:02:59.645Z,53.56
2022-08-10T21:05:40.847Z,54.46
2022-08-10T21:08:32.058Z,54.58
2022-08-10T21:11:01.430Z,54.78
2022-08-10T21:14:06.495Z,55.75
2022-08-10T21:17:07.374Z,58.56
2022-08-10T21:19:55.526Z,59.38
2022-08-10T21:22:29.582Z,59.55
2022-08-10T21:25:04.183Z,61.13
2022-08-10T21:28:03.431Z,58.65
2022-08-10T21:31:07.483Z,60.85
2022-08-10T21:33:43.150Z,60.87
2022-08-10T21:36:18.693Z,61.93
2022-08-10T21:38:48.688Z,63.01
2022-08-10T21:41:58.319Z,62.47
2022-08-10T21:45:08.118Z,64.59
2022-08-10T21:48:19.032Z,64.30
2022-08-10T21:51:14.759Z,64.26
2022-08-10T21:54:28.271Z,64.54
2022-08-10T21:57:26.294Z,65.72
2022-08-10T22:03:39.584Z,63.55
2022-08-10T22:06:28.273Z,64.21
2022-08-10T22:09:21.488Z,65.00
2022-08-10T22:12:10.182Z,65.52
2022-08-10T22:15:11.540Z,65.26
2022-08-10T22:18:05.038Z,68.07
2022-08-10T22:20:56.398Z,67.95
2022-08-10T22:23:51.793Z,67.99
2022-08-10T22:27:01.692Z,67.71
2022-08-10T22:30:11.102Z,67.41
2022-08-10T22:33:07.061Z,66.69
2022-08-10T22:36:07.499Z,68.51
2022-08-10T22:40:11.735Z,70.10
2022-08-10T22:42:58.822Z,71.27
2022-08-10T22:45:48.789Z,69.54
2022-08-10T22:48:34.299Z,70.87
2022-08-10T22:51:17.311Z,71.87
2022-08-10T22:54:31.487Z,72.21
2022-08-10T22:57:32.504Z,69.12
2022-08-10T23:00:09.263Z,69.23
2022-08-10T23:02:38.816Z,68.97
2022-08-10T23:05:13.136Z,69.47
2022-08-10T23:07:48.922Z,73.68
2022-08-10T23:10:20.457Z,73.76
2022-08-10T23:12:57.403Z,74.06
2022-08-10T23:15:53.863Z,74.44
2022-08-10T23:18:53.697Z,73.64
2022-08-10T23:21:23.678Z,74.17
2022-08-10T23:23:55.247Z,75.08
2022-08-10T23:26:30.957Z,74.51
2022-08-10T23:29:11.696Z,73.88
2022-08-10T23:31:59.262Z,72.78
2022-08-10T23:34:33.988Z,73.80
2022-08-10T23:37:03.976Z,74.39
2022-08-10T23:39:37.699Z,74.46
2022-08-10T23:42:38.029Z,75.72
2022-08-10T23:45:11.168Z,76.14
2022-08-10T23:47:41.829Z,75.75
2022-08-10T23:50:12.073Z,74.78
2022-08-10T23:52:41.265Z,74.30
2022-08-10T23:55:11.487Z,74.79
2022-08-10T23:57:45.095Z,75.70
